RYR19KL GCLP-LEVC
Flight info
| Callsign | RYR19KL |
|---|---|
| Flight time | N/A |
| Altitude | 36000 |
| Route | KORAL UG5 SONSO DCT NIRAL/N0438F380 UN871 OSDAM UM985 BARPA DCT XAVIR DCT PIMOS DCT RIXUR DCT PEPAS DCT ARPEX DCT KOSEL DCT BUDIT DCT ETURA DCT XEBAR DCT POBOS DCT ASTRO |
| Aircraft | B738/M-SDE3FGILRWY/SB1 |
Departure
| Time | N/A |
|---|---|
| Airport | Gran Canaria Airport (GCLP) |
Arrival
| Time | 2026-05-05 10:01 |
|---|---|
| Airport | Valencia Airport (LEVC) |
| Time | Latitude | Longitude | Altitude | Speed | Heading |
|---|---|---|---|---|---|
| 2026-05-05 09:38 | 38.63630 | -1.90481 | 26231 ft | 423 kts | 49° |
| 2026-05-05 09:38 | 38.65427 | -1.87521 | 25869 ft | 421 kts | 49° |
| 2026-05-05 09:38 | 38.67226 | -1.84573 | 25505 ft | 419 kts | 49° |
| 2026-05-05 09:39 | 38.69013 | -1.81644 | 25144 ft | 417 kts | 49° |
| 2026-05-05 09:39 | 38.70795 | -1.78721 | 24759 ft | 417 kts | 49° |
| 2026-05-05 09:39 | 38.72575 | -1.75795 | 24427 ft | 414 kts | 49° |
| 2026-05-05 09:39 | 38.74309 | -1.72941 | 24178 ft | 409 kts | 50° |
| 2026-05-05 09:40 | 38.76054 | -1.70068 | 23840 ft | 408 kts | 50° |
| 2026-05-05 09:40 | 38.77791 | -1.67205 | 23455 ft | 407 kts | 50° |
| 2026-05-05 09:40 | 38.79524 | -1.64347 | 23047 ft | 405 kts | 50° |
| 2026-05-05 09:40 | 38.81250 | -1.61496 | 22661 ft | 403 kts | 50° |
| 2026-05-05 09:41 | 38.82964 | -1.58664 | 22293 ft | 401 kts | 50° |
| 2026-05-05 09:41 | 38.84670 | -1.55841 | 21921 ft | 399 kts | 50° |
| 2026-05-05 09:41 | 38.86362 | -1.53039 | 21554 ft | 397 kts | 50° |
| 2026-05-05 09:41 | 38.88050 | -1.50244 | 21194 ft | 395 kts | 50° |
| 2026-05-05 09:42 | 38.89704 | -1.47501 | 20843 ft | 393 kts | 50° |
| 2026-05-05 09:42 | 38.91372 | -1.44731 | 20477 ft | 391 kts | 50° |
| 2026-05-05 09:42 | 38.93035 | -1.41970 | 20118 ft | 390 kts | 50° |
| 2026-05-05 09:42 | 38.94689 | -1.39220 | 19754 ft | 388 kts | 50° |
| 2026-05-05 09:43 | 38.96334 | -1.36482 | 19389 ft | 387 kts | 50° |
| 2026-05-05 09:43 | 38.97977 | -1.33745 | 19033 ft | 386 kts | 50° |
| 2026-05-05 09:43 | 38.99611 | -1.31022 | 18666 ft | 384 kts | 50° |
| 2026-05-05 09:43 | 39.01241 | -1.28303 | 18315 ft | 383 kts | 50° |
| 2026-05-05 09:44 | 39.02866 | -1.25591 | 17921 ft | 382 kts | 50° |
| 2026-05-05 09:44 | 39.04473 | -1.22903 | 17641 ft | 377 kts | 50° |
| 2026-05-05 09:44 | 39.06040 | -1.20281 | 17304 ft | 374 kts | 50° |
| 2026-05-05 09:44 | 39.07621 | -1.17635 | 16959 ft | 371 kts | 50° |
| 2026-05-05 09:45 | 39.09187 | -1.15012 | 16613 ft | 369 kts | 50° |
| 2026-05-05 09:45 | 39.10744 | -1.12400 | 16272 ft | 367 kts | 50° |
| 2026-05-05 09:45 | 39.12296 | -1.09795 | 15918 ft | 365 kts | 50° |
| 2026-05-05 09:45 | 39.13835 | -1.07209 | 15575 ft | 363 kts | 50° |
| 2026-05-05 09:46 | 39.15366 | -1.04637 | 15231 ft | 361 kts | 50° |
| 2026-05-05 09:46 | 39.16889 | -1.02075 | 14895 ft | 359 kts | 50° |
| 2026-05-05 09:46 | 39.18385 | -0.99555 | 14544 ft | 359 kts | 51° |
| 2026-05-05 09:46 | 39.19900 | -0.97003 | 14203 ft | 358 kts | 51° |
| 2026-05-05 09:47 | 39.20636 | -0.95761 | 14019 ft | 358 kts | 51° |
| 2026-05-05 09:47 | 39.22060 | -0.93360 | 13704 ft | 356 kts | 51° |
| 2026-05-05 09:47 | 39.23559 | -0.90827 | 13324 ft | 354 kts | 51° |
| 2026-05-05 09:47 | 39.25049 | -0.88310 | 12967 ft | 352 kts | 51° |
| 2026-05-05 09:48 | 39.26527 | -0.85810 | 12624 ft | 349 kts | 51° |
| 2026-05-05 09:48 | 39.27990 | -0.83334 | 12260 ft | 345 kts | 51° |
| 2026-05-05 09:48 | 39.29434 | -0.80889 | 11983 ft | 341 kts | 51° |
| 2026-05-05 09:48 | 39.30870 | -0.78455 | 11648 ft | 339 kts | 51° |
| 2026-05-05 09:49 | 39.32175 | -0.75955 | 11298 ft | 337 kts | 68° |
| 2026-05-05 09:49 | 39.32548 | -0.73068 | 11008 ft | 328 kts | 99° |
| 2026-05-05 09:49 | 39.31786 | -0.70409 | 10764 ft | 310 kts | 132° |
| 2026-05-05 09:49 | 39.30177 | -0.68735 | 10513 ft | 292 kts | 160° |
| 2026-05-05 09:50 | 39.28388 | -0.67509 | 10208 ft | 295 kts | 147° |
| 2026-05-05 09:50 | 39.27005 | -0.65549 | 10046 ft | 297 kts | 126° |
| 2026-05-05 09:50 | 39.26083 | -0.63179 | 9831 ft | 297 kts | 115° |
| 2026-05-05 09:50 | 39.25385 | -0.60667 | 9511 ft | 297 kts | 112° |
| 2026-05-05 09:51 | 39.24759 | -0.58169 | 9193 ft | 296 kts | 110° |
| 2026-05-05 09:51 | 39.24218 | -0.55611 | 8905 ft | 296 kts | 106° |
| 2026-05-05 09:51 | 39.23822 | -0.53012 | 8599 ft | 295 kts | 101° |
| 2026-05-05 09:51 | 39.23583 | -0.50383 | 8315 ft | 295 kts | 96° |
| 2026-05-05 09:52 | 39.23534 | -0.47722 | 7913 ft | 299 kts | 90° |
| 2026-05-05 09:52 | 39.23695 | -0.45041 | 7589 ft | 300 kts | 84° |
| 2026-05-05 09:52 | 39.24014 | -0.42390 | 7290 ft | 296 kts | 80° |
| 2026-05-05 09:52 | 39.24476 | -0.39839 | 6981 ft | 288 kts | 75° |
| 2026-05-05 09:53 | 39.25075 | -0.37402 | 6699 ft | 282 kts | 70° |
| 2026-05-05 09:53 | 39.25787 | -0.35115 | 6423 ft | 274 kts | 66° |
| 2026-05-05 09:53 | 39.26619 | -0.32946 | 6171 ft | 267 kts | 60° |
| 2026-05-05 09:53 | 39.27554 | -0.30912 | 5904 ft | 261 kts | 56° |
| 2026-05-05 09:54 | 39.28588 | -0.28991 | 5655 ft | 260 kts | 52° |
| 2026-05-05 09:54 | 39.29722 | -0.27173 | 5403 ft | 259 kts | 47° |
| 2026-05-05 09:54 | 39.30947 | -0.25473 | 5145 ft | 258 kts | 43° |
| 2026-05-05 09:54 | 39.32251 | -0.23902 | 4888 ft | 256 kts | 38° |
| 2026-05-05 09:55 | 39.33629 | -0.22465 | 4624 ft | 254 kts | 34° |
| 2026-05-05 09:55 | 39.35052 | -0.21190 | 4407 ft | 250 kts | 28° |
| 2026-05-05 09:55 | 39.36667 | -0.20579 | 3944 ft | 243 kts | 353° |
| 2026-05-05 09:55 | 39.38212 | -0.21271 | 3583 ft | 232 kts | 323° |
| 2026-05-05 09:56 | 39.39331 | -0.22686 | 3385 ft | 220 kts | 303° |
| 2026-05-05 09:56 | 39.40029 | -0.24416 | 3268 ft | 212 kts | 294° |
| 2026-05-05 09:56 | 39.40614 | -0.26099 | 3210 ft | 199 kts | 294° |
| 2026-05-05 09:56 | 39.41184 | -0.27663 | 3058 ft | 186 kts | 295° |
| 2026-05-05 09:57 | 39.41734 | -0.29134 | 2862 ft | 175 kts | 295° |
| 2026-05-05 09:57 | 39.42240 | -0.30476 | 2584 ft | 167 kts | 295° |
| 2026-05-05 09:57 | 39.42752 | -0.31833 | 2527 ft | 170 kts | 295° |
| 2026-05-05 09:57 | 39.43272 | -0.33210 | 2469 ft | 170 kts | 296° |
| 2026-05-05 09:58 | 39.43792 | -0.34562 | 2287 ft | 165 kts | 297° |
| 2026-05-05 09:58 | 39.44262 | -0.35889 | 2058 ft | 160 kts | 296° |
| 2026-05-05 09:58 | 39.44761 | -0.37133 | 1881 ft | 151 kts | 296° |
| 2026-05-05 09:58 | 39.45211 | -0.38334 | 1674 ft | 147 kts | 295° |
| 2026-05-05 09:59 | 39.45654 | -0.39510 | 1510 ft | 146 kts | 295° |
| 2026-05-05 09:59 | 39.46089 | -0.40697 | 1307 ft | 146 kts | 294° |
| 2026-05-05 09:59 | 39.46534 | -0.41883 | 1085 ft | 147 kts | 295° |
| 2026-05-05 09:59 | 39.46991 | -0.43071 | 899 ft | 147 kts | 296° |
| 2026-05-05 10:00 | 39.47439 | -0.44254 | 690 ft | 145 kts | 296° |
| 2026-05-05 10:00 | 39.47880 | -0.45406 | 516 ft | 142 kts | 296° |
| 2026-05-05 10:00 | 39.48322 | -0.46564 | 330 ft | 144 kts | 296° |
| 2026-05-05 10:00 | 39.48756 | -0.47700 | 219 ft | 133 kts | 295° |
| 2026-05-05 10:01 | 39.49094 | -0.48595 | 213 ft | 80 kts | 297° |
| 2026-05-05 10:01 | 39.49260 | -0.49018 | 215 ft | 27 kts | 297° |
| 2026-05-05 10:01 | 39.49361 | -0.49193 | 208 ft | 23 kts | 318° |
| 2026-05-05 10:01 | 39.49467 | -0.49295 | 208 ft | 12 kts | 328° |
| 2026-05-05 10:02 | 39.49533 | -0.49307 | 212 ft | 10 kts | 27° |
| 2026-05-05 10:02 | 39.49538 | -0.49226 | 217 ft | 10 kts | 112° |
| 2026-05-05 10:02 | 39.49511 | -0.49147 | 209 ft | 9 kts | 117° |
| 2026-05-05 10:02 | 39.49481 | -0.49072 | 217 ft | 9 kts | 117° |
| 2026-05-05 10:03 | 39.49446 | -0.48986 | 211 ft | 13 kts | 117° |
| 2026-05-05 10:03 | 39.49402 | -0.48870 | 217 ft | 16 kts | 115° |
| 2026-05-05 10:03 | 39.49355 | -0.48742 | 214 ft | 16 kts | 115° |
| 2026-05-05 10:03 | 39.49307 | -0.48618 | 214 ft | 15 kts | 117° |
| 2026-05-05 10:04 | 39.49261 | -0.48499 | 212 ft | 14 kts | 117° |
| 2026-05-05 10:04 | 39.49217 | -0.48385 | 211 ft | 14 kts | 116° |
| 2026-05-05 10:04 | 39.49174 | -0.48269 | 215 ft | 16 kts | 116° |
| 2026-05-05 10:04 | 39.49119 | -0.48125 | 213 ft | 19 kts | 116° |
| 2026-05-05 10:05 | 39.49059 | -0.47975 | 211 ft | 16 kts | 118° |
| 2026-05-05 10:05 | 39.49028 | -0.47858 | 210 ft | 12 kts | 88° |
| 2026-05-05 10:05 | 39.49044 | -0.47750 | 210 ft | 12 kts | 77° |
| 2026-05-05 10:05 | 39.49058 | -0.47645 | 212 ft | 12 kts | 96° |
| 2026-05-05 10:06 | 39.49024 | -0.47543 | 210 ft | 13 kts | 115° |
| 2026-05-05 10:06 | 39.48983 | -0.47432 | 210 ft | 11 kts | 116° |
| 2026-05-05 10:06 | 39.48953 | -0.47351 | 214 ft | 7 kts | 116° |
| 2026-05-05 10:06 | 39.48959 | -0.47312 | 211 ft | 4 kts | 34° |
| 2026-05-05 10:07 | 39.48984 | -0.47300 | 208 ft | 4 kts | 17° |
| 2026-05-05 10:07 | 39.49008 | -0.47289 | 212 ft | 4 kts | 16° |
| 2026-05-05 10:07 | 39.49021 | -0.47284 | 210 ft | 0 kts | 17° |